Time;durP1;ratioP1;P1;durP2;ratioP2;P2;SDS_P1;SDS_P2;PMS_P1;PMS_P2;Temp;Humidity;BMP_temperature;BMP_pressure;BME280_temperature;BME280_humidity;BME280_pressure;Samples;Min_cycle;Max_cycle;Signal;HPM_P1;HPM_P2
2023/10/18 00:00:35;;;;;;;7.60;3.20;;;;;;;4.96;59.24;100975.63;106471;1254;61657;-59
2023/10/18 00:03:04;;;;;;;6.00;1.40;;;;;;;4.97;59.24;100975.08;106319;1256;63943;-60
2023/10/18 00:05:31;;;;;;;3.60;1.50;;;;;;;4.99;58.99;100972.52;105698;1254;60978;-59
2023/10/18 00:07:59;;;;;;;5.40;1.60;;;;;;;5.06;58.95;100973.60;106082;1259;59720;-59
2023/10/18 00:10:27;;;;;;;5.60;1.80;;;;;;;5.15;59.03;100973.52;105761;1256;64142;-59
2023/10/18 00:12:55;;;;;;;5.70;1.50;;;;;;;5.21;59.00;100975.30;105251;1259;61374;-60
2023/10/18 00:15:23;;;;;;;7.10;1.80;;;;;;;5.30;59.11;100976.13;105984;1253;63672;-60
2023/10/18 00:17:51;;;;;;;7.90;2.20;;;;;;;5.38;59.13;100976.94;105460;1256;59519;-59
2023/10/18 00:20:23;;;;;;;8.10;2.80;;;;;;;5.43;59.14;100977.40;105916;1258;60032;-59
2023/10/18 00:22:51;;;;;;;7.80;3.70;;;;;;;5.44;59.15;100975.30;106894;1253;63004;-59
2023/10/18 00:25:22;;;;;;;7.50;3.30;;;;;;;5.41;59.22;100973.33;106747;1258;60540;-60
2023/10/18 00:27:49;;;;;;;6.50;2.60;;;;;;;5.39;59.08;100975.83;105269;1254;63923;-60
2023/10/18 00:30:18;;;;;;;8.70;3.50;;;;;;;5.34;58.99;100975.39;105356;1254;59685;-58
2023/10/18 00:32:46;;;;;;;7.20;2.60;;;;;;;5.30;58.97;100968.64;106057;1254;59561;-58
2023/10/18 00:35:31;;;;;;;8.10;3.30;;;;;;;5.26;59.18;100966.22;105282;1257;64130;-58
2023/10/18 00:37:59;;;;;;;7.80;3.70;;;;;;;5.24;59.30;100969.30;106533;1254;61638;-58
2023/10/18 00:43:20;;;;;;;10.00;3.30;;;;;;;5.12;59.24;100972.10;106532;1254;60447;-59
2023/10/18 00:45:50;;;;;;;9.10;3.20;;;;;;;5.08;59.27;100964.30;105604;1257;60762;-58
2023/10/18 00:48:20;;;;;;;11.70;4.70;;;;;;;5.02;59.24;100962.69;105326;1257;63722;-58
2023/10/18 00:50:51;;;;;;;8.40;2.90;;;;;;;4.92;59.25;100960.69;105383;1255;73189;-59
2023/10/18 00:53:20;;;;;;;8.40;3.40;;;;;;;4.83;59.36;100961.64;106005;1254;62539;-58
2023/10/18 00:55:51;;;;;;;8.10;3.60;;;;;;;4.80;59.57;100956.41;106298;1253;60553;-58
2023/10/18 00:58:21;;;;;;;7.60;2.70;;;;;;;4.76;59.67;100958.65;105404;1257;60519;-58
2023/10/18 01:00:48;;;;;;;7.70;3.40;;;;;;;4.71;59.85;100955.95;105371;1254;64956;-58
2023/10/18 01:03:28;;;;;;;11.20;3.20;;;;;;;4.65;59.90;100956.05;105891;1254;61422;-58
2023/10/18 01:06:16;;;;;;;6.50;2.10;;;;;;;4.58;60.10;100957.77;106634;1254;62465;-59
2023/10/18 01:08:47;;;;;;;6.60;1.60;;;;;;;4.65;60.03;100957.80;105449;1254;60359;-59
2023/10/18 01:11:19;;;;;;;7.70;2.50;;;;;;;4.71;60.05;100958.56;105256;1257;60533;-60
2023/10/18 01:13:47;;;;;;;4.80;1.90;;;;;;;4.78;60.03;100961.39;105244;1251;63642;-58
2023/10/18 01:16:22;;;;;;;6.30;2.10;;;;;;;4.82;60.07;100961.33;105115;1259;60434;-59
2023/10/18 01:18:52;;;;;;;5.10;2.00;;;;;;;4.89;60.25;100956.13;105209;1254;63742;-59
2023/10/18 01:21:20;;;;;;;5.60;2.30;;;;;;;5.02;60.30;100957.77;105311;1254;60455;-58
2023/10/18 01:23:53;;;;;;;7.50;2.70;;;;;;;5.09;60.33;100955.02;105321;1259;60482;-58
2023/10/18 01:26:25;;;;;;;7.50;3.00;;;;;;;5.13;60.26;100960.77;105534;1252;63891;-58
2023/10/18 01:28:54;;;;;;;7.70;3.50;;;;;;;5.16;60.29;100962.17;106801;1254;61388;-58
2023/10/18 01:31:22;;;;;;;9.20;3.50;;;;;;;5.22;60.26;100965.17;106534;1254;64326;-59
2023/10/18 01:33:50;;;;;;;5.90;2.20;;;;;;;5.26;60.24;100965.38;105936;1256;60929;-59
2023/10/18 01:36:20;;;;;;;8.40;2.70;;;;;;;5.28;60.10;100961.95;105353;1254;60598;-57
2023/10/18 01:38:52;;;;;;;8.60;3.60;;;;;;;5.29;60.06;100957.39;106158;1259;64931;-58
2023/10/18 01:41:27;;;;;;;8.70;3.80;;;;;;;5.30;59.87;100957.85;105924;1258;60380;-58
2023/10/18 01:43:58;;;;;;;7.70;3.20;;;;;;;5.30;59.73;100953.88;105904;1257;62506;-59
2023/10/18 01:46:26;;;;;;;6.70;2.90;;;;;;;5.28;59.59;100953.08;105641;1259;60541;-59
2023/10/18 01:48:55;;;;;;;7.00;2.80;;;;;;;5.27;59.42;100947.55;106531;1253;60443;-61
2023/10/18 01:51:23;;;;;;;6.70;2.50;;;;;;;5.25;59.45;100949.05;105856;1254;65345;-58
2023/10/18 01:53:54;;;;;;;5.70;2.50;;;;;;;5.24;59.45;100948.57;106004;1254;61959;-56
2023/10/18 01:56:22;;;;;;;9.20;3.90;;;;;;;5.24;59.28;100949.64;105982;1254;66103;-58
2023/10/18 01:58:50;;;;;;;4.10;1.40;;;;;;;5.29;59.15;100947.13;105998;1254;60535;-59
2023/10/18 02:01:18;;;;;;;6.70;2.40;;;;;;;5.34;59.03;100948.05;105424;1256;60389;-59
2023/10/18 02:03:47;;;;;;;9.40;3.40;;;;;;;5.38;59.08;100944.39;106773;1254;71965;-61
2023/10/18 02:06:17;;;;;;;7.10;2.90;;;;;;;5.38;59.17;100945.79;106410;1259;60728;-60
2023/10/18 02:08:45;;;;;;;8.60;2.80;;;;;;;5.38;59.17;100943.85;105998;1254;63724;-52
2023/10/18 02:11:12;;;;;;;8.00;3.20;;;;;;;5.37;59.10;100945.11;105461;1258;60556;-53
2023/10/18 02:13:41;;;;;;;8.20;3.70;;;;;;;5.35;59.11;100947.30;105421;1259;60512;-53
2023/10/18 02:16:14;;;;;;;10.60;2.40;;;;;;;5.33;59.11;100944.29;105767;1253;63621;-53
2023/10/18 02:18:46;;;;;;;11.40;4.30;;;;;;;5.32;59.14;100945.95;105331;1254;62000;-53
2023/10/18 02:21:14;;;;;;;5.80;2.90;;;;;;;5.28;59.20;100948.57;105352;1254;63726;-52
2023/10/18 02:23:46;;;;;;;6.80;3.10;;;;;;;5.24;59.27;100948.59;105366;1254;59556;-52
2023/10/18 02:26:32;;;;;;;7.10;2.90;;;;;;;5.20;59.37;100946.16;105378;1252;59734;-53
2023/10/18 02:29:00;;;;;;;6.80;3.40;;;;;;;5.16;59.45;100948.24;105685;1256;64960;-54
2023/10/18 02:31:28;;;;;;;14.60;3.60;;;;;;;5.13;59.46;100944.44;105639;1256;60335;-53
2023/10/18 02:33:56;;;;;;;6.70;2.70;;;;;;;5.13;59.54;100942.48;105099;1254;62456;-54
2023/10/18 02:36:32;;;;;;;5.70;2.00;;;;;;;5.19;59.34;100942.00;105952;1256;60712;-53
2023/10/18 02:39:00;;;;;;;5.40;2.00;;;;;;;5.28;59.31;100940.04;105745;1257;61022;-52
2023/10/18 02:41:28;;;;;;;6.20;2.90;;;;;;;5.33;59.26;100939.25;105880;1252;64914;-52
2023/10/18 02:43:57;;;;;;;6.60;2.60;;;;;;;5.36;59.17;100941.90;106045;1254;61324;-51
2023/10/18 02:46:26;;;;;;;6.00;2.00;;;;;;;5.35;59.23;100943.67;106403;1254;62490;-52
2023/10/18 02:48:55;;;;;;;8.00;3.00;;;;;;;5.34;59.27;100941.65;105936;1257;60556;-53
2023/10/18 02:51:24;;;;;;;9.80;3.10;;;;;;;5.31;59.26;100938.65;107401;1254;60435;-54
2023/10/18 02:53:54;;;;;;;7.20;3.20;;;;;;;5.30;59.28;100943.08;105876;1252;64983;-53
2023/10/18 02:56:26;;;;;;;8.40;2.80;;;;;;;5.28;59.34;100937.44;106002;1252;61323;-52
2023/10/18 02:58:58;;;;;;;8.50;2.80;;;;;;;5.26;59.44;100933.00;106468;1254;63812;-53
2023/10/18 03:01:28;;;;;;;7.80;3.50;;;;;;;5.23;59.49;100926.86;106469;1256;60430;-53
2023/10/18 03:03:56;;;;;;;9.50;3.30;;;;;;;5.21;59.50;100927.35;105703;1254;60306;-53
2023/10/18 03:06:33;;;;;;;8.50;3.20;;;;;;;5.18;59.57;100927.64;106423;1254;64912;-53
2023/10/18 03:09:03;;;;;;;9.90;3.50;;;;;;;5.14;59.56;100923.98;105550;1259;60584;-53
2023/10/18 03:11:32;;;;;;;5.70;2.70;;;;;;;5.13;59.52;100919.52;106047;1254;64224;-53
2023/10/18 03:14:01;;;;;;;5.20;1.90;;;;;;;5.20;59.44;100915.55;105615;1254;60481;-55
2023/10/18 03:16:54;;;;;;;8.30;3.10;;;;;;;5.26;59.45;100909.19;105573;1252;60462;-53
2023/10/18 03:19:18;;;;;;;7.90;2.70;;;;;;;5.29;59.45;100906.91;105332;1254;65006;-53
2023/10/18 03:21:50;;;;;;;7.00;3.00;;;;;;;5.30;59.57;100903.55;106108;1254;61390;-52
2023/10/18 03:24:21;;;;;;;7.40;3.30;;;;;;;5.30;59.63;100902.70;106653;1256;62458;-53
2023/10/18 03:26:49;;;;;;;7.70;2.90;;;;;;;5.28;59.59;100901.91;107518;1254;60407;-53
2023/10/18 03:29:16;;;;;;;8.70;3.60;;;;;;;5.24;59.69;100899.35;105755;1258;60427;-53
2023/10/18 03:31:44;;;;;;;9.50;3.70;;;;;;;5.20;59.77;100901.98;105050;1259;65203;-53
2023/10/18 03:34:18;;;;;;;8.80;2.50;;;;;;;5.17;59.84;100902.66;105359;1254;61562;-52
2023/10/18 03:36:49;;;;;;;8.50;3.00;;;;;;;5.13;59.89;100904.75;106569;1254;63756;-53
2023/10/18 03:39:18;;;;;;;10.00;4.30;;;;;;;5.08;59.99;100905.18;105411;1253;60994;-53
2023/10/18 03:41:53;;;;;;;8.00;3.20;;;;;;;5.03;60.18;100909.38;105261;1254;60536;-52
2023/10/18 03:44:21;;;;;;;7.20;3.00;;;;;;;5.00;60.21;100911.26;106052;1254;65431;-52
2023/10/18 03:46:51;;;;;;;5.50;2.20;;;;;;;5.04;60.04;100908.52;106861;1254;61433;-51
2023/10/18 03:49:30;;;;;;;7.70;2.40;;;;;;;5.09;59.91;100908.61;105964;1256;62537;-51
2023/10/18 03:52:34;;;;;;;7.60;2.30;;;;;;;5.14;59.86;100909.55;106239;1259;60559;-51
2023/10/18 03:57:28;;;;;;;8.10;3.10;;;;;;;5.11;59.87;100906.05;105767;1254;63626;-54
2023/10/18 03:59:58;;;;;;;6.30;2.60;;;;;;;5.08;59.88;100905.36;106384;1257;60394;-57
2023/10/18 04:02:27;;;;;;;7.90;3.70;;;;;;;5.05;60.00;100902.72;105331;1259;63776;-58
2023/10/18 04:04:59;;;;;;;7.40;3.50;;;;;;;5.01;60.10;100905.46;109141;1256;58568;-55
2023/10/18 04:07:26;;;;;;;7.40;3.50;;;;;;;4.98;60.05;100906.14;107471;1254;60404;-53
2023/10/18 04:10:31;;;;;;;7.60;3.50;;;;;;;4.94;60.10;100907.74;106232;1253;65126;-58
2023/10/18 04:12:50;;;;;;;7.70;2.70;;;;;;;4.91;60.32;100911.00;106787;1254;62667;-55
2023/10/18 04:15:29;;;;;;;6.10;2.50;;;;;;;4.93;60.30;100911.64;106011;1259;64008;-56
2023/10/18 04:20:46;;;;;;;11.70;4.20;;;;;;;5.04;60.04;100914.57;108667;1256;60013;-55
2023/10/18 04:23:21;;;;;;;5.80;2.90;;;;;;;4.95;60.38;100916.90;105697;1254;63977;-57
2023/10/18 04:25:57;;;;;;;9.70;3.50;;;;;;;4.97;60.38;100911.09;105857;1254;61512;-55
2023/10/18 04:28:29;;;;;;;7.80;2.50;;;;;;;5.04;60.18;100909.52;105107;1259;62529;-53
2023/10/18 04:31:03;;;;;;;7.10;3.40;;;;;;;5.03;60.14;100908.54;105823;1258;60469;-54
2023/10/18 04:33:35;;;;;;;8.00;2.80;;;;;;;5.00;60.21;100905.56;105579;1254;60457;-51
2023/10/18 04:36:13;;;;;;;10.40;4.00;;;;;;;4.97;60.22;100910.21;105907;1253;65012;-54
2023/10/18 04:38:47;;;;;;;11.20;4.10;;;;;;;4.95;60.27;100910.48;109163;1254;61342;-53
2023/10/18 04:41:28;;;;;;;9.40;4.00;;;;;;;4.93;60.22;100911.98;109160;1253;62456;-53
2023/10/18 04:46:47;;;;;;;7.40;3.20;;;;;;;4.94;60.33;100912.44;109220;1254;58228;-52
2023/10/18 04:54:15;;;;;;;7.70;3.90;;;;;;;5.24;59.95;100907.51;109130;1254;63733;-54
2023/10/18 04:56:46;;;;;;;8.60;3.30;;;;;;;5.30;59.89;100906.50;109121;1254;58876;-55
2023/10/18 05:04:34;;;;;;;9.60;4.40;;;;;;;5.40;59.53;100907.42;106400;1253;60329;-53
2023/10/18 05:09:43;;;;;;;9.00;3.30;;;;;;;5.29;59.63;100910.05;107903;1256;60476;-51
2023/10/18 05:16:12;;;;;;;8.70;3.50;;;;;;;5.20;60.08;100917.13;106328;1260;63724;-51
2023/10/18 05:18:44;;;;;;;8.10;3.00;;;;;;;5.20;60.19;100913.80;105540;1259;62425;-50
2023/10/18 05:21:20;;;;;;;7.00;3.60;;;;;;;5.28;60.07;100917.23;105617;1254;62467;-53
2023/10/18 05:23:50;;;;;;;7.30;3.00;;;;;;;5.39;59.95;100919.14;106826;1253;60367;-53
2023/10/18 05:26:17;;;;;;;6.10;3.00;;;;;;;5.48;59.88;100922.02;105374;1253;60622;-50
2023/10/18 05:29:01;;;;;;;8.30;2.80;;;;;;;5.54;59.92;100928.32;105348;1254;64973;-50
2023/10/18 05:34:04;;;;;;;7.50;3.40;;;;;;;5.58;59.74;100929.50;105731;1256;63730;-51
2023/10/18 05:39:49;;;;;;;9.20;3.60;;;;;;;5.58;59.61;100924.42;105911;1254;60534;-57
2023/10/18 05:42:21;;;;;;;9.20;3.70;;;;;;;5.57;59.69;100923.82;105200;1254;65412;-60
2023/10/18 05:44:52;;;;;;;13.60;4.40;;;;;;;5.56;59.81;100930.12;105745;1254;60863;-59
2023/10/18 05:47:20;;;;;;;9.00;3.70;;;;;;;5.71;59.55;100934.94;105426;1254;74648;-60
2023/10/18 05:49:53;;;;;;;7.00;3.00;;;;;;;5.72;59.47;100937.50;106351;1253;60553;-59
2023/10/18 05:52:48;;;;;;;8.20;4.00;;;;;;;5.72;59.51;100937.33;106320;1252;60607;-52
2023/10/18 05:55:17;;;;;;;7.10;2.20;;;;;;;5.90;59.05;100931.19;106040;1254;65271;-53
2023/10/18 05:57:46;;;;;;;9.90;3.30;;;;;;;6.01;58.94;100930.10;107248;1257;71962;-57
2023/10/18 06:00:18;;;;;;;10.40;3.80;;;;;;;6.09;58.82;100931.41;105270;1254;64251;-61
2023/10/18 06:02:46;;;;;;;5.60;2.70;;;;;;;6.14;58.74;100933.44;106008;1254;60597;-60
2023/10/18 06:05:19;;;;;;;7.40;3.60;;;;;;;6.17;58.61;100929.81;105827;1255;60347;-50
2023/10/18 06:07:57;;;;;;;7.20;4.30;;;;;;;6.18;58.59;100933.27;105944;1254;66008;-49
2023/10/18 06:10:25;;;;;;;8.40;3.20;;;;;;;6.18;58.65;100932.55;106279;1254;60530;-53
2023/10/18 06:12:57;;;;;;;7.10;3.20;;;;;;;6.20;58.67;100930.86;107054;1254;64054;-53
2023/10/18 06:15:38;;;;;;;7.80;3.30;;;;;;;6.23;58.67;100930.19;105193;1253;60522;-54
2023/10/18 06:18:06;;;;;;;6.70;3.20;;;;;;;6.25;58.65;100930.60;105484;1257;61178;-52
2023/10/18 06:20:37;;;;;;;9.90;3.20;;;;;;;6.25;58.66;100928.67;105225;1254;64918;-53
2023/10/18 06:25:51;;;;;;;9.50;4.10;;;;;;;6.30;58.82;100927.70;105262;1259;63719;-49
2023/10/18 06:28:21;;;;;;;10.50;4.10;;;;;;;6.40;58.82;100924.04;105607;1254;60560;-57
2023/10/18 06:30:51;;;;;;;7.70;2.80;;;;;;;6.52;58.75;100923.55;105177;1256;60448;-51
2023/10/18 06:33:20;;;;;;;7.40;3.70;;;;;;;6.65;58.62;100925.86;105323;1256;65442;-54
2023/10/18 06:35:53;;;;;;;11.10;3.40;;;;;;;6.72;58.56;100926.00;105344;1259;60095;-53
2023/10/18 06:38:22;;;;;;;9.90;3.90;;;;;;;6.77;58.54;100923.28;106829;1254;62500;-54
2023/10/18 06:41:00;;;;;;;12.40;8.10;;;;;;;6.81;58.48;100921.13;105720;1258;60559;-49
2023/10/18 06:43:33;;;;;;;10.90;4.20;;;;;;;6.85;58.52;100921.22;105469;1259;60534;-50
2023/10/18 06:46:04;;;;;;;8.20;3.20;;;;;;;6.89;58.41;100922.45;105804;1254;63803;-53
2023/10/18 06:48:33;;;;;;;8.00;2.90;;;;;;;6.91;58.26;100922.85;105518;1254;60538;-51
2023/10/18 06:51:01;;;;;;;9.40;2.90;;;;;;;6.91;58.32;100923.70;105731;1254;64380;-52
2023/10/18 06:53:29;;;;;;;7.60;4.00;;;;;;;6.92;58.35;100917.93;105313;1259;60431;-52
2023/10/18 06:56:05;;;;;;;7.90;3.80;;;;;;;6.94;58.46;100919.71;105370;1259;60449;-53
2023/10/18 07:01:05;;;;;;;8.30;3.40;;;;;;;6.99;58.38;100919.41;105759;1254;61345;-56
2023/10/18 07:03:33;;;;;;;7.60;2.80;;;;;;;7.07;58.27;100917.58;105573;1258;62427;-54
2023/10/18 07:06:04;;;;;;;7.40;2.50;;;;;;;7.21;58.22;100916.43;104995;1254;60505;-55
2023/10/18 07:08:33;;;;;;;13.30;8.40;;;;;;;7.34;57.89;100913.78;105071;1261;60388;-54
2023/10/18 07:11:08;;;;;;;9.80;2.60;;;;;;;7.46;57.77;100911.48;109040;1253;65009;-53
2023/10/18 07:13:50;;;;;;;8.40;3.90;;;;;;;7.58;57.63;100909.55;109175;1253;61491;-53
2023/10/18 07:16:25;;;;;;;8.50;3.40;;;;;;;7.69;57.61;100907.35;108394;1253;64354;-48
2023/10/18 07:21:43;;;;;;;;;;;;;;;7.92;57.19;100900.23;105143;1254;60537;-52
2023/10/18 07:24:10;;;;;;;8.60;2.30;;;;;;;8.01;57.20;100897.77;109176;1254;64814;-53
2023/10/18 07:26:38;;;;;;;7.70;3.00;;;;;;;8.11;57.07;100892.60;109183;1254;61792;-54
2023/10/18 07:29:09;;;;;;;11.90;7.70;;;;;;;8.22;56.97;100891.21;109217;1253;63936;-53
2023/10/18 07:31:42;;;;;;;9.80;3.00;;;;;;;8.34;56.82;100888.55;109249;1256;58620;-53
2023/10/18 07:34:09;;;;;;;9.90;4.50;;;;;;;8.46;56.45;100886.45;109263;1253;58303;-53
2023/10/18 07:36:44;;;;;;;16.00;8.80;;;;;;;8.55;55.96;100882.41;109175;1253;64908;-54
2023/10/18 07:39:12;;;;;;;7.60;3.30;;;;;;;8.61;55.80;100877.27;105399;1254;61366;-56
2023/10/18 07:41:40;;;;;;;10.00;3.00;;;;;;;8.74;55.59;100876.11;105381;1254;63850;-53
2023/10/18 07:44:08;;;;;;;10.70;7.60;;;;;;;8.90;55.24;100874.20;105361;1256;60566;-51
2023/10/18 07:46:39;;;;;;;8.80;3.80;;;;;;;9.04;55.05;100875.89;105299;1258;60478;-48
2023/10/18 07:49:15;;;;;;;13.20;8.40;;;;;;;9.16;55.20;100875.61;105298;1254;64972;-51
2023/10/18 07:51:50;;;;;;;11.70;8.30;;;;;;;9.29;54.72;100875.83;105337;1259;62518;-51
2023/10/18 07:54:20;;;;;;;7.60;3.00;;;;;;;9.38;54.33;100871.05;106016;1256;62475;-52
2023/10/18 07:56:53;;;;;;;14.60;8.80;;;;;;;9.44;54.26;100870.92;106028;1254;60581;-53
2023/10/18 07:59:28;;;;;;;7.90;3.30;;;;;;;9.53;54.14;100869.33;105979;1252;60374;-51
2023/10/18 08:02:12;;;;;;;17.00;8.90;;;;;;;9.62;54.03;100863.10;105832;1253;65517;-50
2023/10/18 08:04:44;;;;;;;6.80;3.30;;;;;;;9.71;53.97;100863.86;105409;1259;60483;-52
2023/10/18 08:07:16;;;;;;;13.10;7.60;;;;;;;9.81;54.06;100857.77;106193;1254;63673;-50
2023/10/18 08:09:43;;;;;;;6.80;3.10;;;;;;;9.91;53.71;100851.81;105347;1254;60533;-52
2023/10/18 08:14:58;;;;;;;;;;;;;;;10.04;53.06;100846.17;105333;1258;68276;-47
2023/10/18 08:17:44;;;;;;;6.50;3.30;;;;;;;10.14;52.90;100845.48;105323;1259;60603;-52
2023/10/18 08:22:50;;;;;;;7.50;3.40;;;;;;;10.33;51.64;100840.46;105286;1253;61587;-47
2023/10/18 08:25:24;;;;;;;11.90;7.20;;;;;;;10.37;51.70;100835.25;105309;1254;60479;-52
2023/10/18 08:27:52;;;;;;;6.10;2.20;;;;;;;10.46;51.74;100832.71;105950;1259;76054;-52
2023/10/18 08:31:02;;;;;;;11.60;6.80;;;;;;;10.55;51.37;100829.25;106106;1257;60371;-51
2023/10/18 08:33:26;;;;;;;10.20;6.40;;;;;;;10.65;50.68;100830.83;105258;1254;63753;-52
2023/10/18 08:35:58;;;;;;;6.50;2.20;;;;;;;10.71;50.44;100830.02;105829;1258;60446;-50
2023/10/18 08:38:26;;;;;;;8.70;5.80;;;;;;;10.75;49.98;100827.44;105263;1254;60904;-48
2023/10/18 08:41:11;;;;;;;11.50;6.00;;;;;;;10.79;49.49;100832.06;105824;1259;64906;-51
2023/10/18 08:44:05;;;;;;;8.00;3.30;;;;;;;10.80;49.36;100832.05;105510;1252;522458;-51
2023/10/18 08:59:30;;;;;;;10.30;6.00;;;;;;;11.14;48.67;100813.73;102792;1283;604434;-50
2023/10/18 09:02:18;;;;;;;9.30;5.40;;;;;;;11.79;47.54;100812.72;108324;1264;143768;-51
2023/10/18 09:04:59;;;;;;;9.00;5.50;;;;;;;11.88;47.13;100807.25;107130;1267;58734;-49
2023/10/18 09:07:45;;;;;;;8.80;5.40;;;;;;;11.92;46.97;100808.61;104214;1266;63413;-51
2023/10/18 09:16:01;;;;;;;;;;;;;;;11.78;45.66;100792.95;104847;1266;59245;-50
2023/10/18 09:18:32;;;;;;;9.20;4.70;;;;;;;11.75;45.31;100787.06;104694;1267;59251;-50
2023/10/18 09:21:17;;;;;;;7.40;3.90;;;;;;;11.73;45.83;100782.65;105047;1263;62012;-50
2023/10/18 09:23:47;;;;;;;10.30;4.10;;;;;;;11.76;45.80;100779.27;104808;1267;60111;-51
2023/10/18 09:26:18;;;;;;;9.30;4.70;;;;;;;11.76;44.62;100778.91;104683;1263;63773;-52
2023/10/18 09:28:46;;;;;;;8.70;4.70;;;;;;;11.71;44.31;100777.83;104558;1262;59718;-49
2023/10/18 09:31:21;;;;;;;10.80;4.90;;;;;;;11.66;44.59;100772.43;104828;1263;60266;-50
2023/10/18 09:33:52;;;;;;;8.20;4.20;;;;;;;11.64;44.81;100767.29;104757;1268;66368;-50
2023/10/18 09:36:20;;;;;;;8.20;3.80;;;;;;;11.69;44.75;100763.42;105164;1262;61450;-51
2023/10/18 09:38:48;;;;;;;8.30;3.90;;;;;;;11.75;44.55;100758.58;104654;1263;62492;-51
2023/10/18 09:41:16;;;;;;;7.80;4.50;;;;;;;11.81;44.56;100760.06;104808;1263;59798;-49
2023/10/18 09:43:44;;;;;;;9.40;4.00;;;;;;;11.85;44.12;100757.98;104741;1263;59755;-49
2023/10/18 09:46:13;;;;;;;7.00;3.30;;;;;;;11.86;43.72;100756.30;104881;1262;62855;-50
2023/10/18 09:48:42;;;;;;;9.80;4.00;;;;;;;11.86;43.64;100747.89;104825;1268;62799;-52
2023/10/18 09:51:11;;;;;;;7.10;3.70;;;;;;;11.87;43.64;100747.60;104711;1267;64130;-49
2023/10/18 09:53:42;;;;;;;7.20;3.20;;;;;;;11.87;43.15;100741.96;104994;1263;59681;-49
2023/10/18 09:56:14;;;;;;;6.30;3.30;;;;;;;11.86;43.44;100733.40;104910;1263;59650;-49
2023/10/18 09:58:43;;;;;;;8.60;3.40;;;;;;;11.90;43.34;100729.45;104868;1263;63228;-49
2023/10/18 10:01:13;;;;;;;9.00;3.50;;;;;;;11.92;43.17;100727.73;104886;1263;61592;-49
2023/10/18 10:03:56;;;;;;;6.30;3.50;;;;;;;11.95;42.96;100724.30;104925;1263;63763;-50
2023/10/18 10:06:25;;;;;;;7.70;3.40;;;;;;;11.98;42.71;100721.63;106272;1267;59683;-51
2023/10/18 10:09:33;;;;;;;6.10;3.10;;;;;;;12.01;42.67;100713.30;105445;1263;59532;-52
2023/10/18 10:11:50;;;;;;;7.50;3.20;;;;;;;12.04;42.50;100708.08;104664;1262;64125;-53
2023/10/18 10:14:21;;;;;;;10.10;3.60;;;;;;;12.06;42.53;100706.90;104624;1263;61914;-54
2023/10/18 10:16:58;;;;;;;9.40;3.90;;;;;;;12.11;42.78;100708.66;104734;1267;63884;-57
2023/10/18 10:19:32;;;;;;;8.00;4.30;;;;;;;12.14;42.75;100708.92;105449;1259;59693;-54
2023/10/18 10:22:06;;;;;;;6.50;3.70;;;;;;;12.15;42.55;100699.14;104909;1259;59914;-53
2023/10/18 10:24:43;;;;;;;9.90;4.20;;;;;;;12.20;42.55;100695.80;105334;1259;62990;-55
2023/10/18 10:27:27;;;;;;;7.50;3.70;;;;;;;12.27;42.36;100691.47;105768;1262;61620;-55
2023/10/18 10:29:56;;;;;;;5.70;3.10;;;;;;;12.31;41.71;100692.75;105570;1263;63749;-53
2023/10/18 10:32:24;;;;;;;6.70;3.80;;;;;;;12.27;41.21;100683.42;105693;1260;59721;-53
2023/10/18 10:35:09;;;;;;;6.40;3.30;;;;;;;12.21;41.85;100682.27;106589;1259;59569;-53
2023/10/18 10:37:45;;;;;;;6.60;3.30;;;;;;;12.31;42.10;100677.28;105399;1257;64067;-53
2023/10/18 10:43:01;;;;;;;7.60;4.10;;;;;;;12.30;41.60;100667.52;104939;1260;63675;-57
2023/10/18 10:45:37;;;;;;;6.20;3.20;;;;;;;12.47;41.36;100666.43;105321;1259;59660;-60
2023/10/18 10:48:15;;;;;;;6.30;3.30;;;;;;;12.52;41.38;100662.19;105310;1259;59741;-57
2023/10/18 10:50:52;;;;;;;5.50;3.10;;;;;;;12.71;40.74;100657.53;104865;1262;64500;-60
2023/10/18 10:53:30;;;;;;;6.70;3.10;;;;;;;12.79;40.26;100655.66;105539;1257;61367;-59
2023/10/18 10:56:21;;;;;;;6.50;3.80;;;;;;;12.79;39.93;100648.80;105403;1262;63674;-60
2023/10/18 11:04:28;;;;;;;6.50;3.30;;;;;;;12.74;38.96;100657.49;106537;1257;64378;-60
2023/10/18 11:07:00;;;;;;;6.80;3.20;;;;;;;12.70;38.77;100647.98;105564;1262;60343;-57
2023/10/18 11:09:34;;;;;;;6.60;3.50;;;;;;;12.63;38.95;100652.92;105516;1262;62504;-58
2023/10/18 11:12:08;;;;;;;7.70;3.90;;;;;;;12.57;39.43;100650.84;105409;1262;59752;-57
2023/10/18 11:14:37;;;;;;;8.00;3.40;;;;;;;12.52;39.54;100647.17;105351;1262;59570;-60
2023/10/18 11:19:59;;;;;;;7.10;3.40;;;;;;;12.48;40.74;100646.30;105098;1262;62133;-61
2023/10/18 11:22:30;;;;;;;6.50;3.60;;;;;;;12.48;41.24;100649.48;105536;1259;64834;-60
2023/10/18 11:24:59;;;;;;;6.90;3.40;;;;;;;12.48;41.09;100653.33;104895;1263;59683;-56
2023/10/18 11:27:33;;;;;;;6.70;3.40;;;;;;;12.45;40.82;100648.27;105578;1261;59552;-57
2023/10/18 11:32:50;;;;;;;7.20;3.70;;;;;;;12.39;41.21;100634.56;105547;1262;70108;-58
2023/10/18 11:38:12;;;;;;;7.60;3.10;;;;;;;12.40;41.71;100631.31;105031;1262;59489;-59
2023/10/18 11:40:44;;;;;;;7.90;3.60;;;;;;;12.40;42.27;100625.83;104952;1258;59849;-59
2023/10/18 11:43:12;;;;;;;6.90;3.60;;;;;;;12.43;42.67;100622.27;105079;1260;63057;-58
2023/10/18 11:45:39;;;;;;;8.50;3.40;;;;;;;12.47;42.57;100622.65;104964;1260;62514;-57
2023/10/18 11:48:11;;;;;;;9.00;3.30;;;;;;;12.49;42.27;100620.02;104866;1265;77547;-60
2023/10/18 11:50:43;;;;;;;5.90;3.30;;;;;;;12.48;42.28;100621.33;104897;1262;59766;-60
2023/10/18 11:53:14;;;;;;;8.20;3.70;;;;;;;12.47;41.96;100619.83;105095;1262;60341;-58
2023/10/18 11:55:58;;;;;;;10.50;3.60;;;;;;;12.45;42.32;100616.41;104926;1262;74448;-60
2023/10/18 11:58:30;;;;;;;11.60;3.90;;;;;;;12.47;42.12;100615.45;105336;1262;60307;-60
2023/10/18 12:01:00;;;;;;;9.30;4.80;;;;;;;12.47;42.19;100605.40;105505;1257;66133;-59
2023/10/18 12:03:29;;;;;;;8.90;4.40;;;;;;;12.48;42.35;100602.84;105621;1263;60837;-61
2023/10/18 12:05:57;;;;;;;9.50;3.90;;;;;;;12.48;41.82;100604.07;104818;1262;61016;-62
2023/10/18 12:08:30;;;;;;;7.10;3.50;;;;;;;12.49;42.13;100592.90;105109;1262;75217;-67
2023/10/18 12:11:04;;;;;;;6.30;3.50;;;;;;;12.52;42.53;100588.05;105113;1262;61682;-65
2023/10/18 12:13:34;;;;;;;9.90;4.20;;;;;;;12.66;42.15;100585.85;105045;1260;63872;-67
2023/10/18 12:16:04;;;;;;;7.40;3.60;;;;;;;12.78;41.69;100584.41;106956;1260;59361;-69
2023/10/18 12:18:32;;;;;;;7.30;3.50;;;;;;;12.93;41.88;100577.73;108934;1256;57861;-66
2023/10/18 12:20:59;;;;;;;6.90;3.40;;;;;;;13.08;41.19;100572.32;105499;1258;64131;-68
2023/10/18 12:23:27;;;;;;;7.00;4.00;;;;;;;13.22;40.44;100575.91;105546;1257;61334;-67
2023/10/18 12:25:54;;;;;;;8.10;3.90;;;;;;;13.27;40.28;100574.07;105791;1262;63830;-64
2023/10/18 12:28:29;;;;;;;7.70;3.30;;;;;;;13.33;40.14;100570.20;106045;1262;59518;-65
2023/10/18 12:31:00;;;;;;;7.60;3.60;;;;;;;13.39;40.32;100567.72;104865;1262;59654;-67
2023/10/18 12:33:33;;;;;;;7.90;3.70;;;;;;;13.46;40.38;100561.05;108827;1263;64118;-62
2023/10/18 12:36:01;;;;;;;8.60;4.10;;;;;;;13.56;39.99;100558.13;106323;1262;72331;-56
2023/10/18 12:38:31;;;;;;;9.90;3.70;;;;;;;13.61;39.34;100556.59;104846;1262;66065;-55
2023/10/18 12:41:01;;;;;;;7.70;3.40;;;;;;;13.61;38.63;100553.31;105046;1260;59599;-56
2023/10/18 12:43:38;;;;;;;6.40;3.50;;;;;;;13.56;38.75;100547.21;105512;1256;59705;-59
2023/10/18 12:46:06;;;;;;;6.60;3.20;;;;;;;13.53;38.72;100543.73;106254;1262;64255;-59
2023/10/18 12:48:35;;;;;;;7.80;3.40;;;;;;;13.57;39.11;100547.79;105539;1260;70151;-58
2023/10/18 12:51:08;;;;;;;7.30;3.10;;;;;;;13.61;39.06;100544.94;105623;1256;66164;-60
2023/10/18 12:53:38;;;;;;;6.40;2.90;;;;;;;13.63;38.96;100548.11;105263;1257;59786;-65
2023/10/18 13:04:07;;;;;;;7.40;3.30;;;;;;;13.38;39.45;100532.55;108942;1256;73625;-65
2023/10/18 13:06:35;;;;;;;6.80;3.20;;;;;;;13.34;39.78;100529.38;108838;1257;57798;-61
2023/10/18 13:09:15;;;;;;;6.40;3.10;;;;;;;13.35;40.07;100524.55;108834;1256;57698;-60
2023/10/18 13:14:24;;;;;;;7.30;3.30;;;;;;;13.39;40.31;100516.08;105772;1262;62139;-70
2023/10/18 13:16:53;;;;;;;7.30;3.50;;;;;;;13.36;40.25;100514.41;105767;1260;66575;-64